createdAt,value
2022-10-22T00:00:35.916Z,3.25
2022-10-22T00:03:02.833Z,3.85
2022-10-22T00:05:29.700Z,3.25
2022-10-22T00:07:56.605Z,3.78
2022-10-22T00:10:23.497Z,3.28
2022-10-22T00:12:50.384Z,2.70
2022-10-22T00:15:17.655Z,2.70
2022-10-22T00:17:44.533Z,2.85
2022-10-22T00:20:11.823Z,3.05
2022-10-22T00:22:38.736Z,2.58
2022-10-22T00:25:05.860Z,2.90
2022-10-22T00:27:32.696Z,2.70
2022-10-22T00:29:59.532Z,2.88
2022-10-22T00:32:26.312Z,2.78
2022-10-22T00:34:53.171Z,3.00
2022-10-22T00:37:20.052Z,2.40
2022-10-22T00:39:46.905Z,3.50
2022-10-22T00:42:21.487Z,2.38
2022-10-22T00:47:37.540Z,2.97
2022-10-22T00:50:09.628Z,3.47
2022-10-22T00:52:36.912Z,2.65
2022-10-22T00:55:05.072Z,2.78
2022-10-22T00:57:32.592Z,2.78
2022-10-22T00:59:59.554Z,3.08
2022-10-22T01:02:27.700Z,2.88
2022-10-22T01:04:54.588Z,2.60
2022-10-22T01:07:24.508Z,3.22
2022-10-22T01:10:08.796Z,3.20
2022-10-22T01:12:53.654Z,2.80
2022-10-22T01:18:06.951Z,2.65
2022-10-22T01:20:39.732Z,3.00
2022-10-22T01:23:44.044Z,2.45
2022-10-22T01:26:53.290Z,2.75
2022-10-22T01:29:40.960Z,2.47
2022-10-22T01:32:12.825Z,2.65
2022-10-22T01:34:44.170Z,2.47
2022-10-22T01:37:14.305Z,3.05
2022-10-22T01:39:44.881Z,2.20
2022-10-22T01:42:12.890Z,2.40
2022-10-22T01:44:40.193Z,2.63
2022-10-22T01:47:25.425Z,2.72
2022-10-22T01:50:13.288Z,2.53
2022-10-22T01:52:49.296Z,2.47
2022-10-22T01:55:47.721Z,2.92
2022-10-22T01:58:40.469Z,2.90
2022-10-22T02:01:30.297Z,3.35
2022-10-22T02:04:15.488Z,2.65
2022-10-22T02:06:44.557Z,3.40
2022-10-22T02:09:15.866Z,2.95
2022-10-22T02:11:44.270Z,3.60
2022-10-22T02:14:12.877Z,3.38
2022-10-22T02:16:43.362Z,3.13
2022-10-22T02:19:53.089Z,2.88
2022-10-22T02:22:20.527Z,3.67
2022-10-22T02:24:49.284Z,2.08
2022-10-22T02:27:31.929Z,2.38
2022-10-22T02:30:01.817Z,2.33
2022-10-22T02:32:34.503Z,1.73
2022-10-22T02:35:03.406Z,2.00
2022-10-22T02:37:31.041Z,1.90
2022-10-22T02:39:57.941Z,1.80
2022-10-22T02:42:26.459Z,2.00
2022-10-22T02:44:53.387Z,1.67
2022-10-22T02:47:20.305Z,1.88
2022-10-22T02:49:47.267Z,1.80
2022-10-22T02:52:14.575Z,1.83
2022-10-22T02:54:41.446Z,1.60
2022-10-22T02:57:08.305Z,1.80
2022-10-22T02:59:35.471Z,1.52
2022-10-22T03:02:02.400Z,1.60
2022-10-22T03:04:29.276Z,1.90
2022-10-22T03:25:41.947Z,1.70
2022-10-22T03:28:11.137Z,1.90
2022-10-22T03:30:38.000Z,2.28
2022-10-22T03:33:04.822Z,1.88
2022-10-22T03:35:32.308Z,2.38
2022-10-22T03:38:01.291Z,2.17
2022-10-22T03:40:28.314Z,2.25
2022-10-22T03:42:55.248Z,2.00
2022-10-22T03:45:22.024Z,2.50
2022-10-22T03:47:48.816Z,1.98
2022-10-22T03:50:15.709Z,1.88
2022-10-22T03:52:42.519Z,2.15
2022-10-22T03:55:09.675Z,1.70
2022-10-22T03:57:36.944Z,1.77
2022-10-22T04:00:06.141Z,1.70
2022-10-22T04:02:33.168Z,1.98
2022-10-22T04:05:00.009Z,2.50
2022-10-22T04:07:27.302Z,2.55
2022-10-22T04:09:54.144Z,2.10
2022-10-22T04:12:21.010Z,2.03
2022-10-22T04:14:47.969Z,2.22
2022-10-22T04:17:15.485Z,2.45
2022-10-22T04:19:42.277Z,3.63
2022-10-22T04:22:09.128Z,2.40
2022-10-22T04:24:36.004Z,2.58
2022-10-22T04:27:02.772Z,3.22
2022-10-22T04:29:29.676Z,3.20
2022-10-22T04:31:56.440Z,4.40
2022-10-22T04:34:23.357Z,3.55
2022-10-22T04:36:50.189Z,3.50
2022-10-22T04:39:16.999Z,4.97
2022-10-22T04:41:43.786Z,3.72
2022-10-22T04:44:13.651Z,4.20
2022-10-22T04:46:44.141Z,3.60
2022-10-22T04:49:11.017Z,4.30
2022-10-22T04:51:37.888Z,3.75
2022-10-22T04:54:05.011Z,4.28
2022-10-22T04:56:32.465Z,3.75
2022-10-22T04:59:02.268Z,2.53
2022-10-22T05:01:36.885Z,4.25
2022-10-22T05:04:08.592Z,3.25
2022-10-22T05:06:36.886Z,3.92
2022-10-22T05:09:11.293Z,3.17
2022-10-22T05:11:46.284Z,4.05
2022-10-22T05:14:13.369Z,4.20
2022-10-22T05:16:40.291Z,5.28
2022-10-22T05:19:08.290Z,4.00
2022-10-22T05:21:35.617Z,4.20
2022-10-22T05:24:02.513Z,4.60
2022-10-22T05:26:29.872Z,4.32
2022-10-22T05:28:56.962Z,2.85
2022-10-22T05:31:24.141Z,3.90
2022-10-22T05:33:51.182Z,3.20
2022-10-22T05:36:22.908Z,3.20
2022-10-22T05:38:50.232Z,3.83
2022-10-22T05:41:27.785Z,2.78
2022-10-22T05:43:56.558Z,2.67
2022-10-22T05:46:25.188Z,2.75
2022-10-22T05:49:03.187Z,2.20
2022-10-22T05:51:34.654Z,2.63
2022-10-22T05:54:04.331Z,2.45
2022-10-22T05:56:32.464Z,2.42
2022-10-22T05:58:59.977Z,2.10
2022-10-22T06:01:32.123Z,2.65
2022-10-22T06:04:01.469Z,2.28
2022-10-22T06:06:42.326Z,1.83
2022-10-22T06:09:20.169Z,1.73
2022-10-22T06:11:47.977Z,2.22
2022-10-22T06:14:15.242Z,2.75
2022-10-22T06:16:42.398Z,2.13
2022-10-22T06:19:11.962Z,2.70
2022-10-22T06:21:38.942Z,1.85
2022-10-22T06:24:06.256Z,2.00
2022-10-22T06:26:33.250Z,1.73
2022-10-22T06:29:00.433Z,2.60
2022-10-22T06:31:28.791Z,1.83
2022-10-22T06:33:57.121Z,1.90
2022-10-22T06:36:24.753Z,1.80
2022-10-22T06:38:53.175Z,1.55
2022-10-22T06:41:22.958Z,2.20
2022-10-22T06:43:54.046Z,1.60
2022-10-22T06:46:22.121Z,2.13
2022-10-22T06:49:03.147Z,2.10
2022-10-22T06:51:30.436Z,1.40
2022-10-22T06:53:58.663Z,1.30
2022-10-22T06:56:27.596Z,1.30
2022-10-22T06:58:56.400Z,1.70
2022-10-22T07:01:27.760Z,1.70
2022-10-22T07:03:55.141Z,1.50
2022-10-22T07:06:23.273Z,1.77
2022-10-22T07:08:50.460Z,1.67
2022-10-22T07:11:18.510Z,1.58
2022-10-22T07:13:46.341Z,1.80
2022-10-22T07:16:14.778Z,1.75
2022-10-22T07:18:43.721Z,1.83
2022-10-22T07:21:12.036Z,1.90
2022-10-22T07:23:38.968Z,1.38
2022-10-22T07:26:07.580Z,1.52
2022-10-22T07:28:36.640Z,1.70
2022-10-22T07:31:03.981Z,1.90
2022-10-22T07:33:30.866Z,1.65
2022-10-22T07:35:59.893Z,2.25
2022-10-22T07:38:28.039Z,1.50
2022-10-22T07:40:55.471Z,2.10
2022-10-22T07:43:22.317Z,1.88
2022-10-22T07:45:49.238Z,1.95
2022-10-22T07:48:16.829Z,1.70
2022-10-22T07:53:11.490Z,2.30
2022-10-22T07:55:38.336Z,2.15
2022-10-22T07:58:05.187Z,2.50
2022-10-22T08:00:32.068Z,1.40
2022-10-22T08:02:58.952Z,2.90
2022-10-22T08:05:25.898Z,2.33
2022-10-22T08:07:52.729Z,2.13
2022-10-22T08:10:19.713Z,2.33
2022-10-22T08:12:46.605Z,3.22
2022-10-22T08:15:13.834Z,2.13
2022-10-22T08:17:40.940Z,1.50
2022-10-22T08:20:08.538Z,2.30
2022-10-22T08:22:35.704Z,1.60
2022-10-22T08:25:02.707Z,2.38
2022-10-22T08:27:29.641Z,2.10
2022-10-22T08:29:56.584Z,2.85
2022-10-22T08:32:23.533Z,2.35
2022-10-22T08:34:50.464Z,1.92
2022-10-22T08:37:17.981Z,1.65
2022-10-22T08:39:45.730Z,1.48
2022-10-22T08:42:27.557Z,2.20
2022-10-22T08:45:03.486Z,1.80
2022-10-22T08:47:41.647Z,1.88
2022-10-22T08:50:24.288Z,2.45
2022-10-22T08:52:57.757Z,2.22
2022-10-22T08:55:25.855Z,2.17
2022-10-22T08:58:16.045Z,1.77
2022-10-22T09:00:47.721Z,2.72
2022-10-22T09:03:17.221Z,3.00
2022-10-22T09:05:55.301Z,1.38
2022-10-22T09:08:23.329Z,1.83
2022-10-22T09:10:56.102Z,1.65
2022-10-22T09:13:24.098Z,2.10
2022-10-22T09:16:13.951Z,1.58
2022-10-22T09:19:02.863Z,1.67
2022-10-22T09:21:39.901Z,2.25
2022-10-22T09:24:30.850Z,2.42
2022-10-22T09:27:00.199Z,2.20
2022-10-22T09:29:33.294Z,1.42
2022-10-22T09:32:00.587Z,2.35
2022-10-22T09:34:30.061Z,2.63
2022-10-22T09:37:03.174Z,1.67
2022-10-22T09:39:36.993Z,2.30
2022-10-22T09:44:35.150Z,1.80
2022-10-22T09:48:00.581Z,2.05
2022-10-22T09:50:50.029Z,2.38
2022-10-22T09:53:22.111Z,2.00
2022-10-22T09:58:23.235Z,1.90
2022-10-22T10:01:00.626Z,1.90
2022-10-22T10:03:31.248Z,2.50
2022-10-22T10:06:03.078Z,2.05
2022-10-22T10:08:33.353Z,1.88
2022-10-22T10:11:06.747Z,1.80
2022-10-22T10:13:38.811Z,6.93
2022-10-22T10:16:10.934Z,13.15
2022-10-22T10:18:56.472Z,2.90
2022-10-22T10:21:26.044Z,2.10
2022-10-22T10:24:19.279Z,1.80
2022-10-22T10:26:58.581Z,2.33
2022-10-22T10:32:30.982Z,2.10
2022-10-22T10:35:35.935Z,2.83
2022-10-22T10:38:32.192Z,2.05
2022-10-22T10:41:19.300Z,2.42
2022-10-22T10:44:14.205Z,2.95
2022-10-22T10:46:43.921Z,2.22
2022-10-22T10:49:19.229Z,2.53
2022-10-22T10:52:04.738Z,2.55
2022-10-22T10:54:44.179Z,2.22
2022-10-22T10:57:29.621Z,2.90
2022-10-22T11:00:22.277Z,2.55
2022-10-22T11:03:21.025Z,2.63
2022-10-22T11:05:55.868Z,2.47
2022-10-22T11:08:28.757Z,2.10
2022-10-22T11:11:06.607Z,1.92
2022-10-22T11:13:52.881Z,2.25
2022-10-22T11:16:28.814Z,2.25
2022-10-22T11:19:04.451Z,2.22
2022-10-22T11:21:44.078Z,1.67
2022-10-22T11:24:16.808Z,1.83
2022-10-22T11:26:55.670Z,1.98
2022-10-22T11:29:29.462Z,3.00
2022-10-22T11:32:01.933Z,2.78
2022-10-22T11:34:37.874Z,2.22
2022-10-22T11:37:06.427Z,2.10
2022-10-22T11:39:45.513Z,2.42
2022-10-22T11:42:22.933Z,3.05
2022-10-22T11:45:03.460Z,2.00
2022-10-22T11:48:09.866Z,2.45
2022-10-22T11:51:00.860Z,2.75
2022-10-22T11:53:36.938Z,2.50
2022-10-22T11:56:21.221Z,2.25
2022-10-22T11:58:52.238Z,2.50
2022-10-22T12:01:27.512Z,2.55
2022-10-22T12:04:22.005Z,2.53
2022-10-22T12:07:02.434Z,2.13
2022-10-22T12:09:32.911Z,2.53
2022-10-22T12:12:11.881Z,2.35
2022-10-22T12:14:52.812Z,2.00
2022-10-22T12:17:21.916Z,2.70
2022-10-22T12:20:15.350Z,2.10
2022-10-22T12:22:42.695Z,2.35
2022-10-22T12:25:17.626Z,2.05
2022-10-22T12:27:45.048Z,1.92
2022-10-22T12:30:17.865Z,1.88
2022-10-22T12:32:44.881Z,2.38
2022-10-22T12:35:20.777Z,1.90
2022-10-22T12:38:01.599Z,2.03
2022-10-22T12:40:33.327Z,1.60
2022-10-22T12:43:07.570Z,2.13
2022-10-22T12:45:35.695Z,2.35
2022-10-22T12:48:06.428Z,2.50
2022-10-22T12:50:54.468Z,2.25
2022-10-22T12:53:27.789Z,2.40
2022-10-22T12:55:56.370Z,2.53
2022-10-22T12:58:27.914Z,2.67
2022-10-22T13:01:02.241Z,2.70
2022-10-22T13:03:36.098Z,3.08
2022-10-22T13:06:33.986Z,2.85
2022-10-22T13:09:08.188Z,2.25
2022-10-22T13:14:15.941Z,2.53
2022-10-22T13:16:42.800Z,2.47
2022-10-22T13:19:40.093Z,2.38
2022-10-22T13:22:28.685Z,2.33
2022-10-22T13:27:28.831Z,2.00
2022-10-22T13:29:57.246Z,2.20
2022-10-22T13:32:34.331Z,2.65
2022-10-22T13:35:04.669Z,2.83
2022-10-22T13:37:34.365Z,2.60
2022-10-22T13:40:01.281Z,3.00
2022-10-22T13:42:28.204Z,2.25
2022-10-22T13:44:55.070Z,2.25
2022-10-22T13:47:29.010Z,2.10
2022-10-22T13:49:58.751Z,2.08
2022-10-22T13:52:36.015Z,2.25
2022-10-22T13:55:18.173Z,1.67
2022-10-22T13:57:45.972Z,2.03
2022-10-22T14:00:19.157Z,2.08
2022-10-22T14:02:49.270Z,1.90
2022-10-22T14:05:20.530Z,2.17
2022-10-22T14:07:47.806Z,2.15
2022-10-22T14:10:18.348Z,2.40
2022-10-22T14:12:49.278Z,1.90
2022-10-22T14:15:19.967Z,2.03
2022-10-22T14:17:49.979Z,2.00
2022-10-22T14:20:21.113Z,2.40
2022-10-22T14:22:49.257Z,1.67
2022-10-22T14:25:18.882Z,2.63
2022-10-22T14:27:46.138Z,2.33
2022-10-22T14:30:18.064Z,2.42
2022-10-22T14:32:45.410Z,2.08
2022-10-22T14:35:14.613Z,2.47
2022-10-22T14:37:41.946Z,2.65
2022-10-22T14:40:12.538Z,2.83
2022-10-22T14:42:42.964Z,2.10
2022-10-22T14:45:19.885Z,2.58
2022-10-22T14:47:46.899Z,2.03
2022-10-22T14:50:14.561Z,1.98
2022-10-22T14:52:43.591Z,2.10
2022-10-22T14:55:12.534Z,2.45
2022-10-22T14:57:40.488Z,2.55
2022-10-22T15:00:13.545Z,2.22
2022-10-22T15:02:40.686Z,2.60
2022-10-22T15:05:08.205Z,3.05
2022-10-22T15:07:35.611Z,2.83
2022-10-22T15:10:02.692Z,2.28
2022-10-22T15:27:18.867Z,1.92
2022-10-22T15:29:45.726Z,2.00
2022-10-22T15:32:12.608Z,2.58
2022-10-22T15:34:39.995Z,1.65
2022-10-22T15:37:10.341Z,2.65
2022-10-22T15:39:41.070Z,1.95
2022-10-22T15:42:09.609Z,2.88
2022-10-22T15:44:36.958Z,2.75
2022-10-22T15:47:06.409Z,2.85
2022-10-22T15:49:35.742Z,2.22
2022-10-22T15:52:02.790Z,2.03
2022-10-22T15:54:30.968Z,2.30
2022-10-22T15:56:59.642Z,2.53
2022-10-22T15:59:26.534Z,2.53
2022-10-22T16:01:53.470Z,2.25
2022-10-22T16:04:20.378Z,1.98
2022-10-22T16:06:49.410Z,2.70
2022-10-22T16:09:19.148Z,2.35
2022-10-22T16:11:46.365Z,2.25
2022-10-22T16:14:15.445Z,1.98
2022-10-22T16:16:44.713Z,1.83
2022-10-22T16:19:13.346Z,2.35
2022-10-22T16:21:40.702Z,2.10
2022-10-22T16:24:09.077Z,2.22
2022-10-22T16:26:36.044Z,2.17
2022-10-22T16:29:03.547Z,2.50
2022-10-22T16:31:30.403Z,1.90
2022-10-22T16:33:58.377Z,2.10
2022-10-22T16:36:25.405Z,2.10
2022-10-22T16:38:52.224Z,2.75
2022-10-22T16:41:24.928Z,2.08
2022-10-22T16:44:00.416Z,2.45
2022-10-22T16:46:27.269Z,2.72
2022-10-22T16:48:57.840Z,2.55
2022-10-22T16:51:27.654Z,2.42
2022-10-22T16:53:56.203Z,3.25
2022-10-22T16:56:23.877Z,2.58
2022-10-22T16:58:53.562Z,2.03
2022-10-22T17:01:23.020Z,2.33
2022-10-22T17:03:49.918Z,2.85
2022-10-22T17:06:16.853Z,3.22
2022-10-22T17:08:44.056Z,2.60
2022-10-22T17:11:19.189Z,2.60
2022-10-22T17:13:52.721Z,3.38
2022-10-22T17:16:22.536Z,4.07
2022-10-22T17:18:49.585Z,3.28
2022-10-22T17:21:17.443Z,3.00
2022-10-22T17:23:44.877Z,2.88
2022-10-22T17:26:20.961Z,2.97
2022-10-22T17:28:48.904Z,3.53
2022-10-22T17:31:22.958Z,3.25
2022-10-22T17:33:52.153Z,3.75
2022-10-22T17:36:19.709Z,3.30
2022-10-22T17:38:49.681Z,3.60
2022-10-22T17:41:19.500Z,2.60
2022-10-22T17:46:21.614Z,2.63
2022-10-22T17:48:53.445Z,2.60
2022-10-22T17:51:21.905Z,3.00
2022-10-22T17:53:51.980Z,3.25
2022-10-22T17:56:21.549Z,3.67
2022-10-22T17:58:49.082Z,4.28
2022-10-22T18:01:20.937Z,4.22
2022-10-22T18:03:47.929Z,3.40
2022-10-22T18:06:15.052Z,3.55
2022-10-22T18:08:42.090Z,3.17
2022-10-22T18:11:11.835Z,4.15
2022-10-22T18:13:38.969Z,5.10
2022-10-22T18:16:06.191Z,3.22
2022-10-22T18:18:34.355Z,2.65
2022-10-22T18:21:01.877Z,2.95
2022-10-22T18:23:28.812Z,4.22
2022-10-22T18:25:55.816Z,5.25
2022-10-22T18:28:22.834Z,3.00
2022-10-22T18:30:49.874Z,2.97
2022-10-22T18:33:18.851Z,3.63
2022-10-22T18:35:48.873Z,3.17
2022-10-22T18:38:15.834Z,3.20
2022-10-22T18:40:46.844Z,4.60
2022-10-22T18:43:14.285Z,3.25
2022-10-22T18:45:45.511Z,3.28
2022-10-22T18:48:18.113Z,4.18
2022-10-22T18:50:46.754Z,4.93
2022-10-22T18:53:15.277Z,4.47
2022-10-22T18:55:42.516Z,4.13
2022-10-22T18:58:09.273Z,3.70
2022-10-22T19:00:36.823Z,4.85
2022-10-22T19:03:03.747Z,4.65
2022-10-22T19:05:31.117Z,6.05
2022-10-22T19:07:59.179Z,5.55
2022-10-22T19:10:26.092Z,4.47
2022-10-22T19:12:52.990Z,4.75
2022-10-22T19:15:19.891Z,4.70
2022-10-22T19:17:46.856Z,4.40
2022-10-22T19:20:13.765Z,3.92
2022-10-22T19:22:40.541Z,3.63
2022-10-22T19:25:11.163Z,4.00
2022-10-22T19:27:40.154Z,3.78
2022-10-22T19:30:07.796Z,4.28
2022-10-22T19:32:35.136Z,4.00
2022-10-22T19:35:02.466Z,4.93
2022-10-22T19:37:29.316Z,4.55
2022-10-22T19:39:56.173Z,4.45
2022-10-22T19:42:23.063Z,4.07
2022-10-22T19:44:49.844Z,4.85
2022-10-22T19:47:16.920Z,4.90
2022-10-22T19:49:43.847Z,4.13
2022-10-22T19:52:10.793Z,4.22
2022-10-22T19:54:40.899Z,4.30
2022-10-22T19:57:08.781Z,4.05
2022-10-22T19:59:36.361Z,4.18
2022-10-22T20:02:03.264Z,4.60
2022-10-22T20:04:30.202Z,4.82
2022-10-22T20:06:57.104Z,4.35
2022-10-22T20:09:23.967Z,3.97
2022-10-22T20:11:50.912Z,4.20
2022-10-22T20:14:17.800Z,4.68
2022-10-22T20:16:44.787Z,4.32
2022-10-22T20:19:16.128Z,4.38
2022-10-22T20:21:44.145Z,4.50
2022-10-22T20:24:12.393Z,4.53
2022-10-22T20:26:39.298Z,5.63
2022-10-22T20:29:06.389Z,4.97
2022-10-22T20:31:33.534Z,5.25
2022-10-22T20:34:01.389Z,6.03
2022-10-22T20:36:30.052Z,6.90
2022-10-22T20:39:05.862Z,7.45
2022-10-22T20:41:34.445Z,6.38
2022-10-22T20:44:01.328Z,6.90
2022-10-22T20:46:30.968Z,6.63
2022-10-22T20:49:07.304Z,5.80
2022-10-22T20:51:35.707Z,6.57
2022-10-22T20:54:02.568Z,7.35
2022-10-22T20:56:29.524Z,6.03
2022-10-22T20:59:04.823Z,5.63
2022-10-22T21:01:36.613Z,6.38
2022-10-22T21:04:03.995Z,5.60
2022-10-22T21:06:30.884Z,6.35
2022-10-22T21:08:57.846Z,6.22
2022-10-22T21:11:25.061Z,7.00
2022-10-22T21:13:52.016Z,6.63
2022-10-22T21:16:19.785Z,6.20
2022-10-22T21:18:47.211Z,6.20
2022-10-22T21:21:17.042Z,6.30
2022-10-22T21:23:43.949Z,7.25
2022-10-22T21:26:10.876Z,6.22
2022-10-22T21:28:38.285Z,6.10
2022-10-22T21:31:10.265Z,6.25
2022-10-22T21:33:39.260Z,5.60
2022-10-22T21:36:09.246Z,6.70
2022-10-22T21:38:37.639Z,6.28
2022-10-22T21:41:06.429Z,6.18
2022-10-22T21:43:33.684Z,5.75
2022-10-22T21:46:08.617Z,5.88
2022-10-22T21:48:37.194Z,4.95
2022-10-22T21:51:08.702Z,6.15
2022-10-22T21:53:36.426Z,6.47
2022-10-22T21:56:04.685Z,6.63
2022-10-22T21:58:31.609Z,5.97
2022-10-22T22:00:58.651Z,5.35
2022-10-22T22:03:25.516Z,6.25
2022-10-22T22:05:58.890Z,6.85
2022-10-22T22:08:26.345Z,6.77
2022-10-22T22:10:53.883Z,7.07
2022-10-22T22:13:24.943Z,6.97
2022-10-22T22:15:52.708Z,7.50
2022-10-22T22:18:20.374Z,6.32
2022-10-22T22:20:47.212Z,7.05
2022-10-22T22:23:14.017Z,6.55
2022-10-22T22:25:40.857Z,6.95
2022-10-22T22:28:07.749Z,6.22
2022-10-22T22:30:34.602Z,5.78
2022-10-22T22:33:01.453Z,6.22
2022-10-22T22:35:28.987Z,6.88
2022-10-22T22:37:55.943Z,6.35
2022-10-22T22:40:22.834Z,6.03
2022-10-22T22:42:49.884Z,5.60
2022-10-22T22:45:16.705Z,6.10
2022-10-22T22:47:43.767Z,5.78
2022-10-22T22:50:14.039Z,5.47
2022-10-22T22:52:41.500Z,6.32
2022-10-22T22:55:11.149Z,6.30
2022-10-22T22:57:38.043Z,5.35
2022-10-22T23:00:08.106Z,4.82
2022-10-22T23:02:37.889Z,6.03
2022-10-22T23:05:05.650Z,6.13
2022-10-22T23:07:32.555Z,6.40
2022-10-22T23:10:02.112Z,5.82
2022-10-22T23:12:29.340Z,5.97
2022-10-22T23:15:02.337Z,6.15
2022-10-22T23:17:29.373Z,6.25
2022-10-22T23:19:56.267Z,7.47
2022-10-22T23:22:23.147Z,7.05
2022-10-22T23:24:50.361Z,7.05
2022-10-22T23:27:17.232Z,6.22
2022-10-22T23:29:44.203Z,6.20
2022-10-22T23:32:16.789Z,6.68
2022-10-22T23:34:44.042Z,8.23
2022-10-22T23:37:13.466Z,6.90
2022-10-22T23:39:40.687Z,7.07
2022-10-22T23:42:07.553Z,7.97
2022-10-22T23:44:34.780Z,9.10
2022-10-22T23:47:01.570Z,7.15
2022-10-22T23:49:28.515Z,6.57
2022-10-22T23:51:55.596Z,6.93
2022-10-22T23:54:22.404Z,7.45
2022-10-22T23:56:50.209Z,7.13
2022-10-22T23:59:17.075Z,8.25
